sensor_id;sensor_type;location;lat;lon;timestamp;P1;durP1;ratioP1;P2;durP2;ratioP2
74541;SDS011;63015;45.378;20.360;2023-04-25T00:00:15;17.85;;;11.63;;
74541;SDS011;63015;45.378;20.360;2023-04-25T00:02:16;18.13;;;11.68;;
74541;SDS011;63015;45.378;20.360;2023-04-25T00:04:17;18.50;;;11.95;;
74541;SDS011;63015;45.378;20.360;2023-04-25T00:06:18;17.52;;;11.38;;
74541;SDS011;63015;45.378;20.360;2023-04-25T00:08:19;20.65;;;11.77;;
74541;SDS011;63015;45.378;20.360;2023-04-25T00:10:20;16.95;;;11.52;;
74541;SDS011;63015;45.378;20.360;2023-04-25T00:12:21;15.50;;;10.90;;
74541;SDS011;63015;45.378;20.360;2023-04-25T00:14:22;17.13;;;10.93;;
74541;SDS011;63015;45.378;20.360;2023-04-25T00:16:23;16.65;;;11.23;;
74541;SDS011;63015;45.378;20.360;2023-04-25T00:18:24;17.75;;;11.40;;
74541;SDS011;63015;45.378;20.360;2023-04-25T00:20:25;15.95;;;11.13;;
74541;SDS011;63015;45.378;20.360;2023-04-25T00:22:25;18.17;;;11.77;;
74541;SDS011;63015;45.378;20.360;2023-04-25T00:24:26;19.45;;;12.23;;
74541;SDS011;63015;45.378;20.360;2023-04-25T00:26:26;17.85;;;11.98;;
74541;SDS011;63015;45.378;20.360;2023-04-25T00:28:27;18.50;;;11.73;;
74541;SDS011;63015;45.378;20.360;2023-04-25T00:30:28;18.83;;;13.57;;
74541;SDS011;63015;45.378;20.360;2023-04-25T00:32:28;20.35;;;13.05;;
74541;SDS011;63015;45.378;20.360;2023-04-25T00:34:30;20.75;;;13.10;;
74541;SDS011;63015;45.378;20.360;2023-04-25T00:36:31;20.65;;;13.15;;
74541;SDS011;63015;45.378;20.360;2023-04-25T00:38:32;21.58;;;13.57;;
74541;SDS011;63015;45.378;20.360;2023-04-25T00:40:32;24.02;;;13.75;;
74541;SDS011;63015;45.378;20.360;2023-04-25T00:42:34;22.00;;;13.45;;
74541;SDS011;63015;45.378;20.360;2023-04-25T00:44:36;23.77;;;14.75;;
74541;SDS011;63015;45.378;20.360;2023-04-25T00:46:38;23.45;;;15.82;;
74541;SDS011;63015;45.378;20.360;2023-04-25T00:48:40;25.60;;;15.18;;
74541;SDS011;63015;45.378;20.360;2023-04-25T00:50:40;24.63;;;14.75;;
74541;SDS011;63015;45.378;20.360;2023-04-25T00:52:43;22.70;;;14.35;;
74541;SDS011;63015;45.378;20.360;2023-04-25T00:54:45;23.60;;;14.98;;
74541;SDS011;63015;45.378;20.360;2023-04-25T00:56:45;24.73;;;15.18;;
74541;SDS011;63015;45.378;20.360;2023-04-25T00:58:46;24.95;;;15.43;;
74541;SDS011;63015;45.378;20.360;2023-04-25T01:00:49;25.88;;;16.27;;
74541;SDS011;63015;45.378;20.360;2023-04-25T01:02:52;23.60;;;16.25;;
74541;SDS011;63015;45.378;20.360;2023-04-25T01:04:52;23.70;;;16.17;;
74541;SDS011;63015;45.378;20.360;2023-04-25T01:06:53;27.20;;;16.25;;
74541;SDS011;63015;45.378;20.360;2023-04-25T01:08:54;26.83;;;16.13;;
74541;SDS011;63015;45.378;20.360;2023-04-25T01:10:55;25.67;;;16.52;;
74541;SDS011;63015;45.378;20.360;2023-04-25T01:12:56;26.00;;;17.00;;
74541;SDS011;63015;45.378;20.360;2023-04-25T01:14:56;24.80;;;15.80;;
74541;SDS011;63015;45.378;20.360;2023-04-25T01:16:57;27.63;;;17.42;;
74541;SDS011;63015;45.378;20.360;2023-04-25T01:18:58;29.05;;;17.10;;
74541;SDS011;63015;45.378;20.360;2023-04-25T01:21:17;27.45;;;17.52;;
74541;SDS011;63015;45.378;20.360;2023-04-25T01:23:21;29.80;;;16.90;;
74541;SDS011;63015;45.378;20.360;2023-04-25T01:25:22;31.83;;;17.55;;
74541;SDS011;63015;45.378;20.360;2023-04-25T01:27:23;29.67;;;18.70;;
74541;SDS011;63015;45.378;20.360;2023-04-25T01:29:26;30.98;;;17.60;;
74541;SDS011;63015;45.378;20.360;2023-04-25T01:31:27;30.67;;;18.52;;
74541;SDS011;63015;45.378;20.360;2023-04-25T01:33:29;38.50;;;20.77;;
74541;SDS011;63015;45.378;20.360;2023-04-25T01:35:29;33.50;;;19.90;;
74541;SDS011;63015;45.378;20.360;2023-04-25T01:37:30;38.42;;;21.50;;
74541;SDS011;63015;45.378;20.360;2023-04-25T01:39:31;32.88;;;19.30;;
74541;SDS011;63015;45.378;20.360;2023-04-25T01:41:33;34.85;;;20.25;;
74541;SDS011;63015;45.378;20.360;2023-04-25T01:43:37;38.53;;;22.52;;
74541;SDS011;63015;45.378;20.360;2023-04-25T01:45:38;41.22;;;22.48;;
74541;SDS011;63015;45.378;20.360;2023-04-25T01:47:41;40.38;;;23.10;;
74541;SDS011;63015;45.378;20.360;2023-04-25T01:49:43;42.60;;;23.58;;
74541;SDS011;63015;45.378;20.360;2023-04-25T01:51:44;42.13;;;23.35;;
74541;SDS011;63015;45.378;20.360;2023-04-25T01:53:45;44.88;;;24.20;;
74541;SDS011;63015;45.378;20.360;2023-04-25T01:55:47;42.83;;;23.60;;
74541;SDS011;63015;45.378;20.360;2023-04-25T01:57:50;43.17;;;24.15;;
74541;SDS011;63015;45.378;20.360;2023-04-25T01:59:54;45.67;;;23.98;;
74541;SDS011;63015;45.378;20.360;2023-04-25T02:02:14;44.00;;;24.40;;
74541;SDS011;63015;45.378;20.360;2023-04-25T02:04:14;42.17;;;23.42;;
74541;SDS011;63015;45.378;20.360;2023-04-25T02:06:15;45.67;;;25.17;;
74541;SDS011;63015;45.378;20.360;2023-04-25T02:08:18;44.60;;;24.35;;
74541;SDS011;63015;45.378;20.360;2023-04-25T02:10:19;42.47;;;22.83;;
74541;SDS011;63015;45.378;20.360;2023-04-25T02:12:39;38.55;;;23.00;;
74541;SDS011;63015;45.378;20.360;2023-04-25T02:15:18;38.60;;;23.83;;
74541;SDS011;63015;45.378;20.360;2023-04-25T02:17:25;37.22;;;22.40;;
74541;SDS011;63015;45.378;20.360;2023-04-25T02:19:26;39.13;;;21.98;;
74541;SDS011;63015;45.378;20.360;2023-04-25T02:21:27;36.95;;;21.63;;
74541;SDS011;63015;45.378;20.360;2023-04-25T02:23:28;37.53;;;22.65;;
74541;SDS011;63015;45.378;20.360;2023-04-25T02:25:29;38.42;;;20.80;;
74541;SDS011;63015;45.378;20.360;2023-04-25T02:27:30;39.13;;;23.45;;
74541;SDS011;63015;45.378;20.360;2023-04-25T02:29:31;36.40;;;21.90;;
74541;SDS011;63015;45.378;20.360;2023-04-25T02:31:31;36.22;;;21.48;;
74541;SDS011;63015;45.378;20.360;2023-04-25T02:33:32;35.88;;;21.30;;
74541;SDS011;63015;45.378;20.360;2023-04-25T02:35:33;37.22;;;21.50;;
74541;SDS011;63015;45.378;20.360;2023-04-25T02:37:34;38.88;;;22.63;;
74541;SDS011;63015;45.378;20.360;2023-04-25T02:39:35;34.88;;;21.13;;
74541;SDS011;63015;45.378;20.360;2023-04-25T02:41:36;33.78;;;19.80;;
74541;SDS011;63015;45.378;20.360;2023-04-25T02:43:36;35.92;;;21.17;;
74541;SDS011;63015;45.378;20.360;2023-04-25T02:45:37;36.92;;;21.45;;
74541;SDS011;63015;45.378;20.360;2023-04-25T02:47:38;34.83;;;20.67;;
74541;SDS011;63015;45.378;20.360;2023-04-25T02:49:38;35.97;;;19.77;;
74541;SDS011;63015;45.378;20.360;2023-04-25T02:51:39;35.85;;;20.85;;
74541;SDS011;63015;45.378;20.360;2023-04-25T02:53:40;36.50;;;21.27;;
74541;SDS011;63015;45.378;20.360;2023-04-25T02:55:41;34.08;;;19.70;;
74541;SDS011;63015;45.378;20.360;2023-04-25T02:57:42;33.33;;;20.05;;
74541;SDS011;63015;45.378;20.360;2023-04-25T02:59:46;31.02;;;17.95;;
74541;SDS011;63015;45.378;20.360;2023-04-25T03:01:46;31.25;;;19.38;;
74541;SDS011;63015;45.378;20.360;2023-04-25T03:03:47;30.65;;;19.38;;
74541;SDS011;63015;45.378;20.360;2023-04-25T03:05:51;29.90;;;18.70;;
74541;SDS011;63015;45.378;20.360;2023-04-25T03:07:57;31.60;;;17.70;;
74541;SDS011;63015;45.378;20.360;2023-04-25T03:09:58;32.08;;;17.45;;
74541;SDS011;63015;45.378;20.360;2023-04-25T03:11:59;28.42;;;16.08;;
74541;SDS011;63015;45.378;20.360;2023-04-25T03:14:00;27.38;;;16.98;;
74541;SDS011;63015;45.378;20.360;2023-04-25T03:16:01;28.92;;;17.85;;
74541;SDS011;63015;45.378;20.360;2023-04-25T03:18:01;25.88;;;15.75;;
74541;SDS011;63015;45.378;20.360;2023-04-25T03:20:02;23.83;;;15.35;;
74541;SDS011;63015;45.378;20.360;2023-04-25T03:22:04;24.90;;;15.10;;
74541;SDS011;63015;45.378;20.360;2023-04-25T03:24:05;27.40;;;16.17;;
74541;SDS011;63015;45.378;20.360;2023-04-25T03:26:06;27.42;;;16.40;;
74541;SDS011;63015;45.378;20.360;2023-04-25T03:28:07;26.60;;;15.85;;
74541;SDS011;63015;45.378;20.360;2023-04-25T03:30:08;24.33;;;14.75;;
74541;SDS011;63015;45.378;20.360;2023-04-25T03:32:10;25.20;;;14.98;;
74541;SDS011;63015;45.378;20.360;2023-04-25T03:34:11;25.33;;;15.32;;
74541;SDS011;63015;45.378;20.360;2023-04-25T03:36:11;27.27;;;16.70;;
74541;SDS011;63015;45.378;20.360;2023-04-25T03:38:13;25.73;;;16.48;;
74541;SDS011;63015;45.378;20.360;2023-04-25T03:40:14;24.55;;;15.35;;
74541;SDS011;63015;45.378;20.360;2023-04-25T03:42:38;28.35;;;16.05;;
74541;SDS011;63015;45.378;20.360;2023-04-25T03:44:38;25.60;;;15.40;;
74541;SDS011;63015;45.378;20.360;2023-04-25T03:46:40;26.48;;;16.00;;
74541;SDS011;63015;45.378;20.360;2023-04-25T03:48:41;25.38;;;16.40;;
74541;SDS011;63015;45.378;20.360;2023-04-25T03:50:43;18.88;;;10.85;;
74541;SDS011;63015;45.378;20.360;2023-04-25T03:52:44;17.35;;;9.82;;
74541;SDS011;63015;45.378;20.360;2023-04-25T03:54:44;12.07;;;8.13;;
74541;SDS011;63015;45.378;20.360;2023-04-25T03:56:49;10.70;;;6.80;;
74541;SDS011;63015;45.378;20.360;2023-04-25T03:58:53;9.15;;;6.20;;
74541;SDS011;63015;45.378;20.360;2023-04-25T04:00:56;10.57;;;6.55;;
74541;SDS011;63015;45.378;20.360;2023-04-25T04:02:57;11.18;;;7.53;;
74541;SDS011;63015;45.378;20.360;2023-04-25T04:04:58;10.18;;;6.28;;
74541;SDS011;63015;45.378;20.360;2023-04-25T04:06:59;10.45;;;6.65;;
74541;SDS011;63015;45.378;20.360;2023-04-25T04:09:03;11.98;;;7.13;;
74541;SDS011;63015;45.378;20.360;2023-04-25T04:11:08;12.18;;;6.72;;
74541;SDS011;63015;45.378;20.360;2023-04-25T04:13:08;11.50;;;5.82;;
74541;SDS011;63015;45.378;20.360;2023-04-25T04:15:09;12.15;;;7.53;;
74541;SDS011;63015;45.378;20.360;2023-04-25T04:17:10;10.52;;;6.40;;
74541;SDS011;63015;45.378;20.360;2023-04-25T04:19:11;10.55;;;6.70;;
74541;SDS011;63015;45.378;20.360;2023-04-25T04:21:15;9.68;;;5.50;;
74541;SDS011;63015;45.378;20.360;2023-04-25T04:23:16;10.68;;;6.88;;
74541;SDS011;63015;45.378;20.360;2023-04-25T04:25:17;9.27;;;5.05;;
74541;SDS011;63015;45.378;20.360;2023-04-25T04:27:38;9.20;;;5.35;;
74541;SDS011;63015;45.378;20.360;2023-04-25T04:29:52;9.45;;;5.00;;
74541;SDS011;63015;45.378;20.360;2023-04-25T04:32:00;6.47;;;3.65;;
74541;SDS011;63015;45.378;20.360;2023-04-25T04:34:02;7.05;;;4.25;;
74541;SDS011;63015;45.378;20.360;2023-04-25T04:36:04;8.43;;;4.90;;
74541;SDS011;63015;45.378;20.360;2023-04-25T04:38:08;9.23;;;5.22;;
74541;SDS011;63015;45.378;20.360;2023-04-25T04:40:10;9.23;;;4.35;;
74541;SDS011;63015;45.378;20.360;2023-04-25T04:42:27;9.20;;;4.45;;
74541;SDS011;63015;45.378;20.360;2023-04-25T04:44:47;6.80;;;4.05;;
74541;SDS011;63015;45.378;20.360;2023-04-25T04:46:59;8.07;;;4.70;;
74541;SDS011;63015;45.378;20.360;2023-04-25T04:49:02;7.00;;;4.32;;
74541;SDS011;63015;45.378;20.360;2023-04-25T04:51:17;8.77;;;4.82;;
74541;SDS011;63015;45.378;20.360;2023-04-25T04:53:52;6.85;;;4.35;;
74541;SDS011;63015;45.378;20.360;2023-04-25T04:56:22;8.02;;;3.75;;
74541;SDS011;63015;45.378;20.360;2023-04-25T04:58:26;7.18;;;4.30;;
74541;SDS011;63015;45.378;20.360;2023-04-25T05:00:52;6.55;;;3.95;;
74541;SDS011;63015;45.378;20.360;2023-04-25T05:03:13;6.05;;;3.97;;
74541;SDS011;63015;45.378;20.360;2023-04-25T05:05:26;6.88;;;4.10;;
74541;SDS011;63015;45.378;20.360;2023-04-25T05:07:47;5.95;;;3.88;;
74541;SDS011;63015;45.378;20.360;2023-04-25T05:10:18;6.07;;;3.22;;
74541;SDS011;63015;45.378;20.360;2023-04-25T05:12:54;8.00;;;4.13;;
74541;SDS011;63015;45.378;20.360;2023-04-25T05:15:13;6.10;;;3.83;;
74541;SDS011;63015;45.378;20.360;2023-04-25T05:17:26;7.82;;;4.85;;
74541;SDS011;63015;45.378;20.360;2023-04-25T05:19:46;6.50;;;3.75;;
74541;SDS011;63015;45.378;20.360;2023-04-25T05:22:05;6.75;;;4.00;;
74541;SDS011;63015;45.378;20.360;2023-04-25T05:24:17;6.60;;;3.38;;
74541;SDS011;63015;45.378;20.360;2023-04-25T05:26:37;7.25;;;3.70;;
74541;SDS011;63015;45.378;20.360;2023-04-25T05:29:01;6.22;;;3.08;;
74541;SDS011;63015;45.378;20.360;2023-04-25T05:31:36;6.72;;;3.83;;
74541;SDS011;63015;45.378;20.360;2023-04-25T05:33:43;7.10;;;2.55;;
74541;SDS011;63015;45.378;20.360;2023-04-25T05:35:44;5.60;;;3.35;;
74541;SDS011;63015;45.378;20.360;2023-04-25T05:37:45;5.18;;;2.78;;
74541;SDS011;63015;45.378;20.360;2023-04-25T05:39:48;8.52;;;3.75;;
74541;SDS011;63015;45.378;20.360;2023-04-25T05:42:00;8.05;;;3.10;;
74541;SDS011;63015;45.378;20.360;2023-04-25T05:44:20;6.15;;;3.33;;
74541;SDS011;63015;45.378;20.360;2023-04-25T05:46:40;6.50;;;3.78;;
74541;SDS011;63015;45.378;20.360;2023-04-25T05:49:06;6.07;;;3.40;;
74541;SDS011;63015;45.378;20.360;2023-04-25T05:51:16;5.22;;;2.30;;
74541;SDS011;63015;45.378;20.360;2023-04-25T05:53:44;6.72;;;3.70;;
74541;SDS011;63015;45.378;20.360;2023-04-25T05:55:47;7.95;;;3.67;;
74541;SDS011;63015;45.378;20.360;2023-04-25T05:57:56;5.25;;;3.00;;
74541;SDS011;63015;45.378;20.360;2023-04-25T05:59:57;9.05;;;3.15;;
74541;SDS011;63015;45.378;20.360;2023-04-25T06:02:13;6.20;;;3.05;;
74541;SDS011;63015;45.378;20.360;2023-04-25T06:04:15;5.72;;;3.30;;
74541;SDS011;63015;45.378;20.360;2023-04-25T06:06:16;6.63;;;2.45;;
74541;SDS011;63015;45.378;20.360;2023-04-25T06:08:17;5.32;;;2.70;;
74541;SDS011;63015;45.378;20.360;2023-04-25T06:10:17;4.75;;;2.00;;
74541;SDS011;63015;45.378;20.360;2023-04-25T06:12:18;6.43;;;2.33;;
74541;SDS011;63015;45.378;20.360;2023-04-25T06:14:20;6.70;;;2.80;;
74541;SDS011;63015;45.378;20.360;2023-04-25T06:16:23;5.30;;;2.63;;
74541;SDS011;63015;45.378;20.360;2023-04-25T06:18:26;5.68;;;2.75;;
74541;SDS011;63015;45.378;20.360;2023-04-25T06:20:26;6.32;;;3.40;;
74541;SDS011;63015;45.378;20.360;2023-04-25T06:22:30;3.63;;;1.98;;
74541;SDS011;63015;45.378;20.360;2023-04-25T06:24:31;5.53;;;3.10;;
74541;SDS011;63015;45.378;20.360;2023-04-25T06:26:31;4.70;;;1.75;;
74541;SDS011;63015;45.378;20.360;2023-04-25T06:28:32;4.05;;;2.20;;
74541;SDS011;63015;45.378;20.360;2023-04-25T06:30:33;4.85;;;2.00;;
74541;SDS011;63015;45.378;20.360;2023-04-25T06:32:39;7.03;;;2.80;;
74541;SDS011;63015;45.378;20.360;2023-04-25T06:34:40;3.25;;;1.40;;
74541;SDS011;63015;45.378;20.360;2023-04-25T06:36:41;4.15;;;1.67;;
74541;SDS011;63015;45.378;20.360;2023-04-25T06:38:45;3.78;;;2.10;;
74541;SDS011;63015;45.378;20.360;2023-04-25T06:40:46;4.35;;;2.08;;
74541;SDS011;63015;45.378;20.360;2023-04-25T06:42:47;6.30;;;2.15;;
74541;SDS011;63015;45.378;20.360;2023-04-25T06:45:17;4.22;;;1.95;;
74541;SDS011;63015;45.378;20.360;2023-04-25T06:47:18;2.80;;;1.30;;
74541;SDS011;63015;45.378;20.360;2023-04-25T06:49:19;4.53;;;2.20;;
74541;SDS011;63015;45.378;20.360;2023-04-25T06:51:19;4.65;;;1.83;;
74541;SDS011;63015;45.378;20.360;2023-04-25T06:53:20;4.93;;;2.05;;
74541;SDS011;63015;45.378;20.360;2023-04-25T06:55:27;3.40;;;1.52;;
74541;SDS011;63015;45.378;20.360;2023-04-25T06:57:50;3.22;;;1.55;;
74541;SDS011;63015;45.378;20.360;2023-04-25T07:00:17;4.85;;;2.65;;
74541;SDS011;63015;45.378;20.360;2023-04-25T07:02:18;3.78;;;1.98;;
74541;SDS011;63015;45.378;20.360;2023-04-25T07:04:19;5.20;;;2.28;;
74541;SDS011;63015;45.378;20.360;2023-04-25T07:06:24;4.80;;;2.35;;
74541;SDS011;63015;45.378;20.360;2023-04-25T07:08:26;4.05;;;1.73;;
74541;SDS011;63015;45.378;20.360;2023-04-25T07:10:27;6.38;;;3.00;;
74541;SDS011;63015;45.378;20.360;2023-04-25T07:12:27;3.92;;;1.95;;
74541;SDS011;63015;45.378;20.360;2023-04-25T07:14:28;4.93;;;2.35;;
74541;SDS011;63015;45.378;20.360;2023-04-25T07:16:30;4.72;;;2.17;;
74541;SDS011;63015;45.378;20.360;2023-04-25T07:18:31;4.88;;;2.45;;
74541;SDS011;63015;45.378;20.360;2023-04-25T07:20:33;7.13;;;2.67;;
74541;SDS011;63015;45.378;20.360;2023-04-25T07:22:35;3.80;;;1.52;;
74541;SDS011;63015;45.378;20.360;2023-04-25T07:24:38;4.55;;;2.30;;
74541;SDS011;63015;45.378;20.360;2023-04-25T07:26:40;3.45;;;1.45;;
74541;SDS011;63015;45.378;20.360;2023-04-25T07:28:59;4.70;;;2.45;;
74541;SDS011;63015;45.378;20.360;2023-04-25T07:30:59;5.35;;;2.17;;
74541;SDS011;63015;45.378;20.360;2023-04-25T07:33:00;3.03;;;1.35;;
74541;SDS011;63015;45.378;20.360;2023-04-25T07:35:01;6.00;;;2.10;;
74541;SDS011;63015;45.378;20.360;2023-04-25T07:37:03;4.75;;;2.25;;
74541;SDS011;63015;45.378;20.360;2023-04-25T07:39:12;3.58;;;2.00;;
74541;SDS011;63015;45.378;20.360;2023-04-25T07:41:13;7.07;;;2.80;;
74541;SDS011;63015;45.378;20.360;2023-04-25T07:43:13;4.45;;;2.08;;
74541;SDS011;63015;45.378;20.360;2023-04-25T07:45:27;6.05;;;3.05;;
74541;SDS011;63015;45.378;20.360;2023-04-25T07:47:28;5.60;;;2.90;;
74541;SDS011;63015;45.378;20.360;2023-04-25T07:49:28;6.13;;;2.42;;
74541;SDS011;63015;45.378;20.360;2023-04-25T07:51:29;3.85;;;1.90;;
74541;SDS011;63015;45.378;20.360;2023-04-25T07:53:34;6.32;;;1.77;;
74541;SDS011;63015;45.378;20.360;2023-04-25T07:55:40;4.30;;;2.10;;
74541;SDS011;63015;45.378;20.360;2023-04-25T07:57:45;2.97;;;1.27;;
74541;SDS011;63015;45.378;20.360;2023-04-25T07:59:46;5.25;;;2.60;;
74541;SDS011;63015;45.378;20.360;2023-04-25T08:01:47;5.05;;;2.53;;
74541;SDS011;63015;45.378;20.360;2023-04-25T08:03:49;3.55;;;1.52;;
74541;SDS011;63015;45.378;20.360;2023-04-25T08:05:56;4.20;;;2.05;;
74541;SDS011;63015;45.378;20.360;2023-04-25T08:07:59;5.22;;;1.92;;
74541;SDS011;63015;45.378;20.360;2023-04-25T08:10:01;6.15;;;2.38;;
74541;SDS011;63015;45.378;20.360;2023-04-25T08:12:06;5.30;;;2.75;;
74541;SDS011;63015;45.378;20.360;2023-04-25T08:14:08;3.15;;;1.63;;
74541;SDS011;63015;45.378;20.360;2023-04-25T08:16:09;7.45;;;2.38;;
74541;SDS011;63015;45.378;20.360;2023-04-25T08:18:09;5.88;;;2.40;;
74541;SDS011;63015;45.378;20.360;2023-04-25T08:20:10;5.60;;;2.47;;
74541;SDS011;63015;45.378;20.360;2023-04-25T08:22:12;4.50;;;1.90;;
74541;SDS011;63015;45.378;20.360;2023-04-25T08:24:23;3.85;;;1.67;;
74541;SDS011;63015;45.378;20.360;2023-04-25T08:26:24;4.20;;;2.50;;
74541;SDS011;63015;45.378;20.360;2023-04-25T08:28:25;4.53;;;2.05;;
74541;SDS011;63015;45.378;20.360;2023-04-25T08:30:26;5.13;;;1.60;;
74541;SDS011;63015;45.378;20.360;2023-04-25T08:32:27;3.03;;;1.42;;
74541;SDS011;63015;45.378;20.360;2023-04-25T08:34:51;4.05;;;2.40;;
74541;SDS011;63015;45.378;20.360;2023-04-25T08:36:54;4.38;;;1.13;;
74541;SDS011;63015;45.378;20.360;2023-04-25T08:39:13;4.75;;;1.90;;
74541;SDS011;63015;45.378;20.360;2023-04-25T08:41:22;3.65;;;1.98;;
74541;SDS011;63015;45.378;20.360;2023-04-25T08:43:23;5.03;;;2.03;;
74541;SDS011;63015;45.378;20.360;2023-04-25T08:45:26;3.50;;;1.38;;
74541;SDS011;63015;45.378;20.360;2023-04-25T08:47:28;2.33;;;1.25;;
74541;SDS011;63015;45.378;20.360;2023-04-25T08:49:31;3.22;;;1.52;;
74541;SDS011;63015;45.378;20.360;2023-04-25T08:51:33;3.20;;;1.45;;
74541;SDS011;63015;45.378;20.360;2023-04-25T08:53:38;5.10;;;1.85;;
74541;SDS011;63015;45.378;20.360;2023-04-25T08:55:42;3.67;;;1.73;;
74541;SDS011;63015;45.378;20.360;2023-04-25T08:57:45;4.00;;;1.92;;
74541;SDS011;63015;45.378;20.360;2023-04-25T08:59:46;5.25;;;1.60;;
74541;SDS011;63015;45.378;20.360;2023-04-25T09:01:48;4.43;;;1.95;;
74541;SDS011;63015;45.378;20.360;2023-04-25T09:03:50;5.75;;;1.63;;
74541;SDS011;63015;45.378;20.360;2023-04-25T09:05:55;4.55;;;1.92;;
74541;SDS011;63015;45.378;20.360;2023-04-25T09:07:55;4.35;;;1.85;;
74541;SDS011;63015;45.378;20.360;2023-04-25T09:09:57;3.05;;;1.48;;
74541;SDS011;63015;45.378;20.360;2023-04-25T09:11:59;6.15;;;2.63;;
74541;SDS011;63015;45.378;20.360;2023-04-25T09:16:34;5.78;;;1.50;;
74541;SDS011;63015;45.378;20.360;2023-04-25T09:18:55;7.28;;;2.28;;
74541;SDS011;63015;45.378;20.360;2023-04-25T09:21:17;5.20;;;2.20;;
74541;SDS011;63015;45.378;20.360;2023-04-25T09:23:21;6.55;;;2.25;;
74541;SDS011;63015;45.378;20.360;2023-04-25T09:25:22;7.38;;;1.95;;
74541;SDS011;63015;45.378;20.360;2023-04-25T09:27:25;4.18;;;1.48;;
74541;SDS011;63015;45.378;20.360;2023-04-25T09:29:39;4.10;;;1.60;;
74541;SDS011;63015;45.378;20.360;2023-04-25T09:31:41;5.85;;;2.30;;
74541;SDS011;63015;45.378;20.360;2023-04-25T09:33:43;3.72;;;1.92;;
74541;SDS011;63015;45.378;20.360;2023-04-25T09:35:44;7.20;;;2.60;;
74541;SDS011;63015;45.378;20.360;2023-04-25T09:38:12;5.53;;;2.22;;
74541;SDS011;63015;45.378;20.360;2023-04-25T09:40:29;4.82;;;1.92;;
74541;SDS011;63015;45.378;20.360;2023-04-25T09:42:41;3.03;;;1.38;;
74541;SDS011;63015;45.378;20.360;2023-04-25T09:44:42;4.28;;;1.88;;
74541;SDS011;63015;45.378;20.360;2023-04-25T09:46:44;3.83;;;2.10;;
74541;SDS011;63015;45.378;20.360;2023-04-25T09:48:55;4.55;;;1.75;;
74541;SDS011;63015;45.378;20.360;2023-04-25T09:51:09;6.88;;;2.92;;
74541;SDS011;63015;45.378;20.360;2023-04-25T09:53:12;4.93;;;2.08;;
74541;SDS011;63015;45.378;20.360;2023-04-25T09:55:35;4.50;;;1.77;;
74541;SDS011;63015;45.378;20.360;2023-04-25T09:57:38;5.45;;;1.85;;
74541;SDS011;63015;45.378;20.360;2023-04-25T09:59:59;5.40;;;2.63;;
74541;SDS011;63015;45.378;20.360;2023-04-25T10:02:04;3.53;;;1.13;;
74541;SDS011;63015;45.378;20.360;2023-04-25T10:04:11;3.90;;;1.80;;
74541;SDS011;63015;45.378;20.360;2023-04-25T10:06:26;3.58;;;1.98;;
74541;SDS011;63015;45.378;20.360;2023-04-25T10:08:30;5.10;;;2.15;;
74541;SDS011;63015;45.378;20.360;2023-04-25T10:10:33;4.28;;;2.00;;
74541;SDS011;63015;45.378;20.360;2023-04-25T10:12:36;5.35;;;1.90;;
74541;SDS011;63015;45.378;20.360;2023-04-25T10:14:39;4.68;;;1.85;;
74541;SDS011;63015;45.378;20.360;2023-04-25T10:16:41;3.65;;;1.65;;
74541;SDS011;63015;45.378;20.360;2023-04-25T10:18:42;4.25;;;2.08;;
74541;SDS011;63015;45.378;20.360;2023-04-25T10:20:42;3.42;;;1.27;;
74541;SDS011;63015;45.378;20.360;2023-04-25T10:22:44;2.80;;;1.38;;
74541;SDS011;63015;45.378;20.360;2023-04-25T10:24:47;3.00;;;1.15;;
74541;SDS011;63015;45.378;20.360;2023-04-25T10:26:49;4.78;;;1.67;;
74541;SDS011;63015;45.378;20.360;2023-04-25T10:28:54;3.63;;;1.48;;
74541;SDS011;63015;45.378;20.360;2023-04-25T10:31:02;3.58;;;1.38;;
74541;SDS011;63015;45.378;20.360;2023-04-25T10:33:16;3.40;;;1.48;;
74541;SDS011;63015;45.378;20.360;2023-04-25T10:35:26;3.50;;;1.35;;
74541;SDS011;63015;45.378;20.360;2023-04-25T10:37:28;2.65;;;1.10;;
74541;SDS011;63015;45.378;20.360;2023-04-25T10:39:30;4.15;;;1.92;;
74541;SDS011;63015;45.378;20.360;2023-04-25T10:41:37;3.20;;;1.50;;
74541;SDS011;63015;45.378;20.360;2023-04-25T10:43:46;4.15;;;1.70;;
74541;SDS011;63015;45.378;20.360;2023-04-25T10:45:51;2.65;;;1.48;;
74541;SDS011;63015;45.378;20.360;2023-04-25T10:47:52;3.22;;;1.00;;
74541;SDS011;63015;45.378;20.360;2023-04-25T10:49:54;4.40;;;1.40;;
74541;SDS011;63015;45.378;20.360;2023-04-25T10:52:14;3.45;;;1.70;;
74541;SDS011;63015;45.378;20.360;2023-04-25T10:54:15;3.83;;;1.70;;
74541;SDS011;63015;45.378;20.360;2023-04-25T10:56:21;3.03;;;1.40;;
74541;SDS011;63015;45.378;20.360;2023-04-25T10:58:23;3.85;;;2.13;;
74541;SDS011;63015;45.378;20.360;2023-04-25T11:00:23;3.88;;;1.73;;
74541;SDS011;63015;45.378;20.360;2023-04-25T11:04:31;5.32;;;1.50;;
74541;SDS011;63015;45.378;20.360;2023-04-25T11:09:02;8.52;;;3.08;;
74541;SDS011;63015;45.378;20.360;2023-04-25T11:11:12;7.95;;;3.05;;
74541;SDS011;63015;45.378;20.360;2023-04-25T11:13:13;12.38;;;3.42;;
74541;SDS011;63015;45.378;20.360;2023-04-25T11:15:14;6.32;;;2.10;;
74541;SDS011;63015;45.378;20.360;2023-04-25T11:17:15;4.30;;;1.67;;
74541;SDS011;63015;45.378;20.360;2023-04-25T11:19:15;4.57;;;1.92;;
74541;SDS011;63015;45.378;20.360;2023-04-25T11:21:16;9.18;;;3.30;;
74541;SDS011;63015;45.378;20.360;2023-04-25T11:23:17;8.23;;;2.25;;
74541;SDS011;63015;45.378;20.360;2023-04-25T11:25:18;10.88;;;3.05;;
74541;SDS011;63015;45.378;20.360;2023-04-25T11:27:18;7.05;;;2.30;;
74541;SDS011;63015;45.378;20.360;2023-04-25T11:29:22;7.60;;;1.90;;
74541;SDS011;63015;45.378;20.360;2023-04-25T11:31:24;7.50;;;2.10;;
74541;SDS011;63015;45.378;20.360;2023-04-25T11:33:25;8.20;;;2.05;;
74541;SDS011;63015;45.378;20.360;2023-04-25T11:35:27;5.63;;;1.92;;
74541;SDS011;63015;45.378;20.360;2023-04-25T11:37:28;5.25;;;2.03;;
74541;SDS011;63015;45.378;20.360;2023-04-25T11:39:29;5.68;;;1.88;;
74541;SDS011;63015;45.378;20.360;2023-04-25T11:41:30;6.68;;;2.20;;
74541;SDS011;63015;45.378;20.360;2023-04-25T11:43:30;6.40;;;2.45;;
74541;SDS011;63015;45.378;20.360;2023-04-25T11:45:31;9.77;;;1.52;;
74541;SDS011;63015;45.378;20.360;2023-04-25T11:47:32;3.88;;;1.70;;
74541;SDS011;63015;45.378;20.360;2023-04-25T11:49:34;4.97;;;1.88;;
74541;SDS011;63015;45.378;20.360;2023-04-25T11:51:39;7.22;;;2.28;;
74541;SDS011;63015;45.378;20.360;2023-04-25T11:53:47;5.03;;;2.15;;
74541;SDS011;63015;45.378;20.360;2023-04-25T11:55:47;3.97;;;1.90;;
74541;SDS011;63015;45.378;20.360;2023-04-25T11:57:49;6.55;;;2.50;;
74541;SDS011;63015;45.378;20.360;2023-04-25T11:59:52;3.53;;;1.63;;
74541;SDS011;63015;45.378;20.360;2023-04-25T12:01:53;6.45;;;1.98;;
74541;SDS011;63015;45.378;20.360;2023-04-25T12:03:54;4.35;;;1.90;;
74541;SDS011;63015;45.378;20.360;2023-04-25T12:05:55;5.15;;;2.00;;
74541;SDS011;63015;45.378;20.360;2023-04-25T12:08:13;3.75;;;1.67;;
74541;SDS011;63015;45.378;20.360;2023-04-25T12:10:15;5.40;;;2.20;;
74541;SDS011;63015;45.378;20.360;2023-04-25T12:12:17;6.25;;;1.80;;
74541;SDS011;63015;45.378;20.360;2023-04-25T12:14:21;5.00;;;1.63;;
74541;SDS011;63015;45.378;20.360;2023-04-25T12:16:27;9.00;;;1.70;;
74541;SDS011;63015;45.378;20.360;2023-04-25T12:18:28;4.82;;;2.00;;
74541;SDS011;63015;45.378;20.360;2023-04-25T12:20:28;5.65;;;2.15;;